createdAt,value
2023-03-26T00:01:41.505Z,21.10
2023-03-26T00:04:09.845Z,24.27
2023-03-26T00:06:41.664Z,21.48
2023-03-26T00:09:14.074Z,32.70
2023-03-26T00:11:42.939Z,31.55
2023-03-26T00:14:13.719Z,28.08
2023-03-26T00:16:43.045Z,27.90
2023-03-26T00:19:12.549Z,29.65
2023-03-26T00:21:41.394Z,26.00
2023-03-26T00:24:15.056Z,24.02
2023-03-26T00:26:44.607Z,23.05
2023-03-26T00:29:13.872Z,22.27
2023-03-26T00:31:46.168Z,26.85
2023-03-26T00:36:44.111Z,22.20
2023-03-26T00:39:14.060Z,30.88
2023-03-26T00:41:43.713Z,21.42
2023-03-26T00:44:12.475Z,20.23
2023-03-26T00:46:41.074Z,25.85
2023-03-26T00:49:11.004Z,23.30
2023-03-26T00:51:39.693Z,27.42
2023-03-26T00:54:10.968Z,24.17
2023-03-26T00:56:40.699Z,25.50
2023-03-26T00:59:09.357Z,24.35
2023-03-26T01:01:37.908Z,28.50
2023-03-26T01:04:30.619Z,27.70
2023-03-26T01:07:03.048Z,22.48
2023-03-26T01:09:36.626Z,30.15
2023-03-26T01:12:11.810Z,24.40
2023-03-26T01:14:40.634Z,26.20
2023-03-26T01:17:12.388Z,23.58
2023-03-26T01:19:49.470Z,22.83
2023-03-26T01:22:21.630Z,22.90
2023-03-26T01:24:56.118Z,29.00
2023-03-26T01:27:38.776Z,18.65
2023-03-26T01:30:16.942Z,20.60
2023-03-26T01:33:13.791Z,25.75
2023-03-26T01:35:53.586Z,19.65
2023-03-26T01:38:35.410Z,17.52
2023-03-26T01:41:10.261Z,25.13
2023-03-26T01:43:47.041Z,22.63
2023-03-26T01:46:17.051Z,22.35
2023-03-26T01:48:47.800Z,22.63
2023-03-26T01:51:27.851Z,20.58
2023-03-26T01:53:59.410Z,17.92
2023-03-26T01:56:37.133Z,28.88
2023-03-26T01:59:21.410Z,14.70
2023-03-26T02:02:01.229Z,25.13
2023-03-26T02:04:41.045Z,16.85
2023-03-26T02:07:17.811Z,16.27
2023-03-26T02:09:52.574Z,20.08
2023-03-26T02:12:24.781Z,23.58
2023-03-26T02:14:54.717Z,20.92
2023-03-26T02:17:24.295Z,24.20
2023-03-26T02:19:54.244Z,22.00
2023-03-26T02:22:22.733Z,17.55
2023-03-26T02:24:50.979Z,25.08
2023-03-26T02:27:19.404Z,19.45
2023-03-26T02:29:50.250Z,20.17
2023-03-26T02:32:21.997Z,18.50
2023-03-26T02:34:51.244Z,18.17
2023-03-26T02:37:19.725Z,19.88
2023-03-26T02:39:51.945Z,18.52
2023-03-26T02:42:29.214Z,19.10
2023-03-26T02:44:59.039Z,21.17
2023-03-26T02:47:53.122Z,16.65
2023-03-26T02:50:50.221Z,20.92
2023-03-26T02:53:51.118Z,19.02
2023-03-26T02:56:34.542Z,17.38
2023-03-26T02:59:21.339Z,16.95
2023-03-26T03:02:01.122Z,23.50
2023-03-26T03:04:33.112Z,19.52
2023-03-26T03:07:01.363Z,21.70
2023-03-26T03:09:29.776Z,21.38
2023-03-26T03:12:18.409Z,19.35
2023-03-26T03:14:46.638Z,14.98
2023-03-26T03:17:16.135Z,20.08
2023-03-26T03:19:45.242Z,14.70
2023-03-26T03:22:13.523Z,20.25
2023-03-26T03:24:43.757Z,25.02
2023-03-26T03:27:12.525Z,21.33
2023-03-26T03:29:48.575Z,19.00
2023-03-26T03:32:43.639Z,20.08
2023-03-26T03:35:12.674Z,20.42
2023-03-26T03:37:43.400Z,17.90
2023-03-26T03:40:12.414Z,18.58
2023-03-26T03:42:41.214Z,17.23
2023-03-26T03:45:12.160Z,17.20
2023-03-26T03:47:44.725Z,17.52
2023-03-26T03:50:14.491Z,19.50
2023-03-26T03:52:55.796Z,16.23
2023-03-26T03:55:27.474Z,15.30
2023-03-26T03:57:56.189Z,17.08
2023-03-26T04:00:26.270Z,20.20
2023-03-26T04:03:16.121Z,15.15
2023-03-26T04:05:49.363Z,14.63
2023-03-26T04:08:18.598Z,20.13
2023-03-26T04:10:51.480Z,16.27
2023-03-26T04:13:45.861Z,16.15
2023-03-26T04:16:52.237Z,14.85
2023-03-26T04:19:22.356Z,17.60
2023-03-26T04:21:50.685Z,18.52
2023-03-26T04:24:22.355Z,22.92
2023-03-26T04:27:17.663Z,18.77
2023-03-26T04:32:26.484Z,16.88
2023-03-26T04:35:00.202Z,19.15
2023-03-26T04:37:34.293Z,18.67
2023-03-26T04:40:18.364Z,18.55
2023-03-26T04:43:03.464Z,20.73
2023-03-26T04:46:04.570Z,18.30
2023-03-26T04:48:41.762Z,19.77
2023-03-26T04:51:18.356Z,17.77
2023-03-26T04:53:55.180Z,19.25
2023-03-26T04:56:43.207Z,18.42
2023-03-26T04:59:26.408Z,18.48
2023-03-26T05:01:57.877Z,15.65
2023-03-26T05:04:29.435Z,20.10
2023-03-26T05:07:01.126Z,17.27
2023-03-26T05:12:16.482Z,17.60
2023-03-26T05:14:58.831Z,16.23
2023-03-26T05:17:41.803Z,17.15
2023-03-26T05:20:21.321Z,14.68
2023-03-26T05:22:51.994Z,21.05
2023-03-26T05:25:27.360Z,18.67
2023-03-26T05:27:56.369Z,14.18
2023-03-26T05:30:29.044Z,12.73
2023-03-26T05:33:04.212Z,16.88
2023-03-26T05:35:41.574Z,16.05
2023-03-26T05:38:12.959Z,17.40
2023-03-26T05:40:41.200Z,15.60
2023-03-26T05:43:10.334Z,16.60
2023-03-26T05:45:42.550Z,15.57
2023-03-26T05:48:18.860Z,14.25
2023-03-26T05:50:49.607Z,15.60
2023-03-26T05:53:21.377Z,13.50
2023-03-26T05:56:09.315Z,9.75
2023-03-26T05:58:57.516Z,11.80
2023-03-26T06:01:44.952Z,16.77
2023-03-26T06:04:16.026Z,15.05
2023-03-26T06:06:54.154Z,14.35
2023-03-26T06:09:23.877Z,13.98
2023-03-26T06:11:52.117Z,12.38
2023-03-26T06:14:20.735Z,12.40
2023-03-26T06:17:09.568Z,16.45
2023-03-26T06:19:58.526Z,17.10
2023-03-26T06:22:36.061Z,12.05
2023-03-26T06:25:23.349Z,11.43
2023-03-26T06:28:11.881Z,13.30
2023-03-26T06:31:01.716Z,15.70
2023-03-26T06:33:37.609Z,7.65
2023-03-26T06:36:07.888Z,7.80
2023-03-26T06:38:36.502Z,11.35
2023-03-26T06:41:09.009Z,11.20
2023-03-26T06:43:59.753Z,12.68
2023-03-26T06:46:48.371Z,19.42
2023-03-26T06:49:35.457Z,18.00
2023-03-26T06:52:17.825Z,15.80
2023-03-26T06:55:06.432Z,17.08
2023-03-26T06:57:51.161Z,14.73
2023-03-26T07:00:39.739Z,15.13
2023-03-26T07:03:43.168Z,17.65
2023-03-26T07:06:37.766Z,17.08
2023-03-26T07:09:26.148Z,20.23
2023-03-26T07:12:12.981Z,17.08
2023-03-26T07:15:21.002Z,15.50
2023-03-26T07:17:54.777Z,18.00
2023-03-26T07:20:26.994Z,18.00
2023-03-26T07:22:56.437Z,14.40
2023-03-26T07:25:36.893Z,14.20
2023-03-26T07:28:19.319Z,10.40
2023-03-26T07:31:27.086Z,13.40
2023-03-26T07:34:32.640Z,10.57
2023-03-26T07:37:35.982Z,15.15
2023-03-26T07:40:34.276Z,11.63
2023-03-26T07:43:39.104Z,12.55
2023-03-26T07:46:14.783Z,10.77
2023-03-26T07:49:04.557Z,16.17
2023-03-26T07:51:43.435Z,12.27
2023-03-26T07:54:38.654Z,15.02
2023-03-26T07:57:44.144Z,7.43
2023-03-26T08:00:31.434Z,11.18
2023-03-26T08:03:28.195Z,7.95
2023-03-26T08:06:23.517Z,7.43
2023-03-26T08:09:17.200Z,7.00
2023-03-26T08:12:08.155Z,8.32
2023-03-26T08:14:52.377Z,8.70
2023-03-26T08:17:31.512Z,7.90
2023-03-26T08:20:17.095Z,14.68
2023-03-26T08:22:51.801Z,38.58
2023-03-26T08:25:29.595Z,23.70
2023-03-26T08:28:16.380Z,42.67
2023-03-26T08:30:46.895Z,40.90
2023-03-26T08:33:19.035Z,33.10
2023-03-26T08:35:50.090Z,20.92
2023-03-26T08:38:20.903Z,19.23
2023-03-26T08:41:43.631Z,13.80
2023-03-26T08:44:47.676Z,17.33
2023-03-26T08:47:50.315Z,13.25
2023-03-26T08:51:03.596Z,10.70
2023-03-26T08:54:03.269Z,13.07
2023-03-26T08:56:46.124Z,10.23
2023-03-26T08:59:55.760Z,10.73
2023-03-26T09:03:08.135Z,16.00
2023-03-26T09:06:38.164Z,11.70
2023-03-26T09:10:03.857Z,14.35
2023-03-26T09:13:15.333Z,10.85
2023-03-26T09:16:29.697Z,10.50
2023-03-26T09:19:40.790Z,13.65
2023-03-26T09:22:41.736Z,16.58
2023-03-26T09:25:44.563Z,13.88
2023-03-26T09:28:53.331Z,10.63
2023-03-26T09:32:15.699Z,18.10
2023-03-26T09:35:13.063Z,14.63
2023-03-26T09:38:01.810Z,11.88
2023-03-26T09:40:45.957Z,12.75
2023-03-26T09:44:12.610Z,13.13
2023-03-26T09:46:55.393Z,13.35
2023-03-26T09:49:54.618Z,13.82
2023-03-26T09:52:53.847Z,16.17
2023-03-26T09:55:46.032Z,10.55
2023-03-26T09:58:42.866Z,11.97
2023-03-26T10:01:19.201Z,15.27
2023-03-26T10:03:59.203Z,13.25
2023-03-26T10:06:44.374Z,12.43
2023-03-26T10:09:27.765Z,13.35
2023-03-26T10:12:13.772Z,32.08
2023-03-26T10:14:48.402Z,12.50
2023-03-26T10:17:44.543Z,12.52
2023-03-26T10:20:37.533Z,12.75
2023-03-26T10:23:27.500Z,11.75
2023-03-26T10:26:41.745Z,9.60
2023-03-26T10:30:29.543Z,7.93
2023-03-26T10:33:14.669Z,9.00
2023-03-26T10:36:07.213Z,5.80
2023-03-26T10:39:07.564Z,8.95
2023-03-26T10:41:46.281Z,8.38
2023-03-26T10:44:44.850Z,9.30
2023-03-26T10:47:35.621Z,4.63
2023-03-26T10:50:29.416Z,2.80
2023-03-26T10:53:04.151Z,3.50
2023-03-26T10:55:38.689Z,1.85
2023-03-26T10:58:18.529Z,1.90
2023-03-26T11:00:56.600Z,2.20
2023-03-26T11:03:56.305Z,1.70
2023-03-26T11:06:36.783Z,1.88
2023-03-26T11:09:18.023Z,0.90
2023-03-26T11:11:56.811Z,1.05
2023-03-26T11:14:34.958Z,0.98
2023-03-26T11:17:40.865Z,1.77
2023-03-26T11:20:14.411Z,1.13
2023-03-26T11:23:00.315Z,1.42
2023-03-26T11:25:52.086Z,0.73
2023-03-26T11:28:36.384Z,1.48
2023-03-26T11:31:20.808Z,2.28
2023-03-26T11:33:57.607Z,1.75
2023-03-26T11:36:35.753Z,1.25
2023-03-26T11:39:10.381Z,1.77
2023-03-26T11:41:38.751Z,1.63
2023-03-26T11:44:21.734Z,2.45
2023-03-26T11:46:58.791Z,2.10
2023-03-26T11:49:29.363Z,2.42
2023-03-26T11:52:00.883Z,1.77
2023-03-26T11:54:29.216Z,3.05
2023-03-26T11:57:07.350Z,3.05
2023-03-26T11:59:55.586Z,1.95
2023-03-26T12:02:32.348Z,3.15
2023-03-26T12:05:20.803Z,1.85
2023-03-26T12:07:56.730Z,1.45
2023-03-26T12:10:31.033Z,3.60
2023-03-26T12:13:02.816Z,2.55
2023-03-26T12:15:32.399Z,2.75
2023-03-26T12:18:18.644Z,3.47
2023-03-26T12:20:48.141Z,6.15
2023-03-26T12:23:52.492Z,2.95
2023-03-26T12:26:22.387Z,4.75
2023-03-26T12:28:51.759Z,4.55
2023-03-26T12:31:20.876Z,2.72
2023-03-26T12:34:08.182Z,3.53
2023-03-26T12:36:38.908Z,4.07
2023-03-26T12:40:09.142Z,3.55
2023-03-26T12:44:51.312Z,4.78
2023-03-26T12:45:24.207Z,3.25
2023-03-26T12:48:01.514Z,3.58
2023-03-26T12:50:45.904Z,2.30
2023-03-26T12:53:59.340Z,4.15
2023-03-26T12:59:33.362Z,3.35
2023-03-26T13:02:29.409Z,3.45
2023-03-26T13:05:15.936Z,5.50
2023-03-26T13:08:05.166Z,4.60
2023-03-26T13:10:51.850Z,4.43
2023-03-26T13:13:56.412Z,6.72
2023-03-26T13:16:36.035Z,7.88
2023-03-26T13:19:10.904Z,7.90
2023-03-26T13:22:01.301Z,4.30
2023-03-26T13:24:47.289Z,4.78
2023-03-26T13:27:36.387Z,3.47
2023-03-26T13:30:19.075Z,3.58
2023-03-26T13:33:04.327Z,3.67
2023-03-26T13:35:40.750Z,3.08
2023-03-26T13:38:15.971Z,4.03
2023-03-26T13:40:58.382Z,4.60
2023-03-26T13:43:55.432Z,5.45
2023-03-26T13:46:38.150Z,3.83
2023-03-26T13:51:45.812Z,4.57
2023-03-26T13:54:23.614Z,4.80
2023-03-26T13:57:00.870Z,5.25
2023-03-26T13:59:37.026Z,5.93
2023-03-26T14:02:13.263Z,5.45
2023-03-26T14:04:46.398Z,6.18
2023-03-26T14:07:22.435Z,6.63
2023-03-26T14:09:57.671Z,6.15
2023-03-26T14:12:51.168Z,11.90
2023-03-26T14:15:27.664Z,10.60
2023-03-26T14:18:07.622Z,6.55
2023-03-26T14:21:18.031Z,9.63
2023-03-26T14:24:26.020Z,9.73
2023-03-26T14:27:25.705Z,7.78
2023-03-26T14:30:14.388Z,10.50
2023-03-26T14:33:01.106Z,8.57
2023-03-26T14:35:38.530Z,9.38
2023-03-26T14:38:34.198Z,11.45
2023-03-26T14:41:23.871Z,8.20
2023-03-26T14:44:49.286Z,8.90
2023-03-26T14:47:20.605Z,10.43
2023-03-26T14:50:35.768Z,8.30
2023-03-26T14:53:17.209Z,7.80
2023-03-26T14:56:16.660Z,5.72
2023-03-26T14:59:42.776Z,8.98
2023-03-26T15:03:02.947Z,7.32
2023-03-26T15:06:16.395Z,9.00
2023-03-26T15:09:49.097Z,9.40
2023-03-26T15:12:49.502Z,10.00
2023-03-26T15:16:09.123Z,9.05
2023-03-26T15:19:42.421Z,9.88
2023-03-26T15:23:00.791Z,27.77
2023-03-26T15:26:02.490Z,10.73
2023-03-26T15:29:04.326Z,9.32
2023-03-26T15:32:08.599Z,10.60
2023-03-26T15:35:27.270Z,10.32
2023-03-26T15:38:44.083Z,11.52
2023-03-26T15:41:24.419Z,16.73
2023-03-26T15:44:27.321Z,10.77
2023-03-26T15:47:21.647Z,11.15
2023-03-26T15:49:55.293Z,9.48
2023-03-26T15:52:32.232Z,8.80
2023-03-26T15:55:10.493Z,10.05
2023-03-26T15:57:47.952Z,9.85
2023-03-26T16:00:25.251Z,8.77
2023-03-26T16:03:12.717Z,11.05
2023-03-26T16:05:55.623Z,8.57
2023-03-26T16:11:04.161Z,7.55
2023-03-26T16:13:39.480Z,9.68
2023-03-26T16:16:50.631Z,10.63
2023-03-26T16:19:52.950Z,8.95
2023-03-26T16:22:47.303Z,9.90
2023-03-26T16:25:33.174Z,8.80
2023-03-26T16:28:36.770Z,9.63
2023-03-26T16:31:37.878Z,9.15
2023-03-26T16:34:27.669Z,7.85
2023-03-26T16:36:56.708Z,9.30
2023-03-26T16:39:39.131Z,9.90
2023-03-26T16:42:36.510Z,11.15
2023-03-26T16:45:20.863Z,13.25
2023-03-26T16:48:01.954Z,12.70
2023-03-26T16:50:44.937Z,9.77
2023-03-26T16:53:35.999Z,9.98
2023-03-26T16:56:15.647Z,10.25
2023-03-26T16:58:56.242Z,10.35
2023-03-26T17:01:43.020Z,11.32
2023-03-26T17:04:20.437Z,11.88
2023-03-26T17:07:04.388Z,9.90
2023-03-26T17:09:44.489Z,11.40
2023-03-26T17:12:23.806Z,11.35
2023-03-26T17:15:06.570Z,14.48
2023-03-26T17:17:51.151Z,10.30
2023-03-26T17:20:35.821Z,9.57
2023-03-26T17:23:27.660Z,11.75
2023-03-26T17:26:07.454Z,9.98
2023-03-26T17:29:23.767Z,13.57
2023-03-26T17:32:01.660Z,13.07
2023-03-26T17:34:56.744Z,14.70
2023-03-26T17:37:55.989Z,15.38
2023-03-26T17:40:51.030Z,15.75
2023-03-26T17:43:46.053Z,23.25
2023-03-26T17:46:31.749Z,17.98
2023-03-26T17:49:08.602Z,25.50
2023-03-26T17:51:48.372Z,35.17
2023-03-26T17:54:25.203Z,33.40
2023-03-26T17:56:57.025Z,34.95
2023-03-26T17:59:28.228Z,45.13
2023-03-26T18:02:00.935Z,36.10
2023-03-26T18:04:36.332Z,30.50
2023-03-26T18:07:52.835Z,30.70
2023-03-26T18:10:39.790Z,31.02
2023-03-26T18:13:50.919Z,35.85
2023-03-26T18:16:32.668Z,37.15
2023-03-26T18:19:23.566Z,35.10
2023-03-26T18:22:02.229Z,44.70
2023-03-26T18:24:38.236Z,31.83
2023-03-26T18:27:15.372Z,41.67
2023-03-26T18:29:46.647Z,35.10
2023-03-26T18:32:26.355Z,35.75
2023-03-26T18:34:59.444Z,33.47
2023-03-26T18:37:34.399Z,25.42
2023-03-26T18:40:50.782Z,23.80
2023-03-26T18:43:34.427Z,27.02
2023-03-26T18:46:05.628Z,26.65
2023-03-26T18:48:35.233Z,22.08
2023-03-26T18:51:07.273Z,32.55
2023-03-26T18:53:42.013Z,20.77
2023-03-26T18:56:28.903Z,25.42
2023-03-26T18:59:01.115Z,23.55
2023-03-26T19:01:47.444Z,31.50
2023-03-26T19:04:17.609Z,19.95
2023-03-26T19:06:46.829Z,25.00
2023-03-26T19:09:30.972Z,28.42
2023-03-26T19:12:08.310Z,25.95
2023-03-26T19:14:57.359Z,23.38
2023-03-26T19:17:36.158Z,28.98
2023-03-26T19:20:09.180Z,22.58
2023-03-26T19:22:41.326Z,24.35
2023-03-26T19:25:22.423Z,19.50
2023-03-26T19:27:51.812Z,26.08
2023-03-26T19:30:32.975Z,29.08
2023-03-26T19:33:15.812Z,22.95
2023-03-26T19:35:53.684Z,25.25
2023-03-26T19:38:29.703Z,22.65
2023-03-26T19:41:01.681Z,22.35
2023-03-26T19:43:33.120Z,17.10
2023-03-26T19:46:05.887Z,23.15
2023-03-26T19:48:45.580Z,20.15
2023-03-26T19:51:22.516Z,19.40
2023-03-26T19:54:00.250Z,18.48
2023-03-26T19:56:28.742Z,16.58
2023-03-26T19:58:58.180Z,17.33
2023-03-26T20:01:30.028Z,21.85
2023-03-26T20:04:02.336Z,22.63
2023-03-26T20:06:42.514Z,17.58
2023-03-26T20:09:13.335Z,13.77
2023-03-26T20:11:42.130Z,22.08
2023-03-26T20:14:16.688Z,22.27
2023-03-26T20:16:46.498Z,21.38
2023-03-26T20:19:15.557Z,19.85
2023-03-26T20:21:44.716Z,15.32
2023-03-26T20:24:15.942Z,22.35
2023-03-26T20:26:45.092Z,21.20
2023-03-26T20:29:13.905Z,18.73
2023-03-26T20:31:42.786Z,19.25
2023-03-26T20:34:18.938Z,20.38
2023-03-26T20:36:47.694Z,20.77
2023-03-26T20:39:16.160Z,23.13
2023-03-26T20:41:50.995Z,23.10
2023-03-26T20:44:22.420Z,20.60
2023-03-26T20:46:51.615Z,22.45
2023-03-26T20:49:22.173Z,17.88
2023-03-26T20:51:50.395Z,18.73
2023-03-26T20:54:21.514Z,24.75
2023-03-26T20:56:50.348Z,23.23
2023-03-26T20:59:22.306Z,19.88
2023-03-26T21:01:52.115Z,23.35
2023-03-26T21:04:22.907Z,22.20
2023-03-26T21:06:53.362Z,25.67
2023-03-26T21:12:06.935Z,20.33
2023-03-26T21:14:41.349Z,15.80
2023-03-26T21:17:16.773Z,19.83
2023-03-26T21:19:48.251Z,19.95
2023-03-26T21:22:36.568Z,15.13
2023-03-26T21:25:17.030Z,19.83
2023-03-26T21:27:59.445Z,21.00
2023-03-26T21:30:28.676Z,17.48
2023-03-26T21:32:57.181Z,18.92
2023-03-26T21:35:28.505Z,16.63
2023-03-26T21:37:58.257Z,21.08
2023-03-26T21:40:27.921Z,19.67
2023-03-26T21:42:56.978Z,14.85
2023-03-26T21:45:26.682Z,22.38
2023-03-26T21:47:55.852Z,15.68
2023-03-26T21:50:27.431Z,18.25
2023-03-26T21:52:56.581Z,20.00
2023-03-26T21:55:26.940Z,15.18
2023-03-26T21:58:31.537Z,28.77
2023-03-26T22:01:20.624Z,21.08
2023-03-26T22:04:04.697Z,17.90
2023-03-26T22:06:42.773Z,19.98
2023-03-26T22:09:15.020Z,13.85
2023-03-26T22:11:45.159Z,15.30
2023-03-26T22:14:14.158Z,27.23
2023-03-26T22:16:42.534Z,18.30
2023-03-26T22:19:12.451Z,18.08
2023-03-26T22:21:41.989Z,22.80
2023-03-26T22:24:10.197Z,14.68
2023-03-26T22:26:38.683Z,18.35
2023-03-26T22:29:07.086Z,15.43
2023-03-26T22:31:36.064Z,14.27
2023-03-26T22:34:04.960Z,19.88
2023-03-26T22:36:33.256Z,13.80
2023-03-26T22:39:05.690Z,18.65
2023-03-26T22:41:33.859Z,18.35
2023-03-26T22:44:16.796Z,21.45
2023-03-26T22:46:51.112Z,19.25
2023-03-26T22:49:19.837Z,17.88
2023-03-26T22:51:48.080Z,20.65
2023-03-26T22:54:18.284Z,19.42
2023-03-26T22:56:46.731Z,16.00
2023-03-26T22:59:15.256Z,21.77
2023-03-26T23:01:44.054Z,22.65
2023-03-26T23:04:12.846Z,23.15
2023-03-26T23:06:59.662Z,23.30
2023-03-26T23:09:32.009Z,14.70
2023-03-26T23:12:00.446Z,21.52
2023-03-26T23:14:32.227Z,23.58
2023-03-26T23:17:01.296Z,19.97
2023-03-26T23:19:30.399Z,19.27
2023-03-26T23:21:58.785Z,16.35
2023-03-26T23:24:29.994Z,22.10
2023-03-26T23:26:59.891Z,21.58
2023-03-26T23:29:29.966Z,21.45
2023-03-26T23:31:58.297Z,16.38
2023-03-26T23:34:26.675Z,16.95
2023-03-26T23:36:54.785Z,16.98
2023-03-26T23:39:25.476Z,27.67
2023-03-26T23:41:55.088Z,19.95
2023-03-26T23:44:23.255Z,17.63
2023-03-26T23:46:57.929Z,20.13
2023-03-26T23:49:27.898Z,16.77
2023-03-26T23:51:56.223Z,21.90
2023-03-26T23:54:25.487Z,23.63
2023-03-26T23:56:55.095Z,22.02
2023-03-26T23:59:23.454Z,14.65
